Time;durP1;ratioP1;P1;durP2;ratioP2;P2;SDS_P1;SDS_P2;PMS_P1;PMS_P2;Temp;Humidity;BMP_temperature;BMP_pressure;BME280_temperature;BME280_humidity;BME280_pressure;Samples;Min_cycle;Max_cycle;Signal;HPM_P1;HPM_P2
2023/12/03 00:00:08;;;;;;;3.75;3.40;;;18.80;35.30;19.60;102014.00;;;;5012913;28;20048;-56
2023/12/03 00:02:38;;;;;;;4.55;3.28;;;18.80;35.30;19.60;102025.00;;;;5029047;28;20036;-56
2023/12/03 00:05:05;;;;;;;4.18;3.78;;;18.70;35.20;19.60;102019.00;;;;5027594;28;20045;-44
2023/12/03 00:07:32;;;;;;;3.75;3.45;;;18.80;35.30;19.60;102015.00;;;;5028923;28;20125;-44
2023/12/03 00:09:59;;;;;;;4.35;3.30;;;18.80;35.20;19.50;102022.00;;;;5028923;28;20079;-44
2023/12/03 00:12:25;;;;;;;6.25;4.18;;;18.70;35.20;19.50;102020.00;;;;5028629;28;20757;-44
2023/12/03 00:14:51;;;;;;;4.43;4.03;;;18.80;35.30;19.50;102029.00;;;;5029497;28;20423;-44
2023/12/03 00:17:17;;;;;;;4.50;3.40;;;18.80;35.20;19.50;102016.00;;;;5029452;28;20079;-44
2023/12/03 00:19:43;;;;;;;3.55;3.08;;;18.80;35.20;19.50;102023.00;;;;5029537;28;20140;-44
2023/12/03 00:22:09;;;;;;;4.15;3.85;;;18.70;35.20;19.50;102026.00;;;;5029580;28;20037;-44
2023/12/03 00:24:35;;;;;;;4.28;3.53;;;18.70;35.10;19.50;102023.00;;;;5028505;28;20347;-44
2023/12/03 00:27:01;;;;;;;3.78;3.25;;;18.70;35.10;19.50;102022.00;;;;5029271;28;20065;-55
2023/12/03 00:29:27;;;;;;;5.72;3.42;;;18.70;35.10;19.50;102029.00;;;;5028543;28;20091;-57
2023/12/03 00:31:53;;;;;;;2.80;2.60;;;18.70;35.10;19.50;102033.00;;;;5029465;28;20022;-57
2023/12/03 00:34:20;;;;;;;4.63;4.15;;;18.70;35.20;19.50;102030.00;;;;5028445;28;20044;-54
2023/12/03 00:36:46;;;;;;;5.05;4.57;;;18.70;35.20;19.50;102026.00;;;;5028646;28;20041;-58
2023/12/03 00:39:11;;;;;;;4.63;3.53;;;18.70;35.20;19.50;102027.00;;;;5029627;28;20083;-57
2023/12/03 00:41:38;;;;;;;3.55;2.80;;;18.70;35.10;19.50;102025.00;;;;5029283;28;20433;-58
2023/12/03 00:44:04;;;;;;;4.20;3.80;;;18.70;35.80;19.50;102021.00;;;;5020116;28;20034;-55
2023/12/03 00:46:30;;;;;;;4.07;3.67;;;18.70;35.10;19.50;102029.00;;;;5025348;28;20691;-58
2023/12/03 00:48:56;;;;;;;4.50;3.55;;;18.70;35.10;19.50;102027.00;;;;5028305;28;20031;-56
2023/12/03 00:51:22;;;;;;;5.18;3.60;;;18.70;35.10;19.50;102016.00;;;;5029412;28;20030;-54
2023/12/03 00:53:48;;;;;;;4.43;4.05;;;18.70;35.10;19.50;102016.00;;;;5028325;28;20084;-56
2023/12/03 00:56:14;;;;;;;4.13;3.25;;;18.70;35.10;19.50;102008.00;;;;5028350;28;20033;-59
2023/12/03 00:58:40;;;;;;;5.13;3.85;;;18.70;35.10;19.50;102010.00;;;;5028146;28;20460;-56
2023/12/03 01:01:06;;;;;;;3.92;3.55;;;18.70;35.10;19.50;102011.00;;;;5031157;28;20069;-55
2023/12/03 01:03:32;;;;;;;4.75;4.28;;;18.60;35.00;19.40;102018.00;;;;5032364;28;20177;-56
2023/12/03 01:06:00;;;;;;;4.40;3.55;;;18.60;35.00;19.50;102014.00;;;;5033322;28;20113;-58
2023/12/03 01:08:25;;;;;;;3.30;3.03;;;18.60;35.60;19.40;102011.00;;;;5033480;28;20029;-58
2023/12/03 01:10:51;;;;;;;4.20;3.72;;;18.60;35.00;19.40;102017.00;;;;5032990;28;20083;-60
2023/12/03 01:13:17;;;;;;;4.68;4.00;;;18.60;35.00;19.40;102017.00;;;;5033044;28;20482;-57
2023/12/03 01:15:44;;;;;;;4.25;3.22;;;18.60;35.00;19.40;102011.00;;;;5015854;28;20092;-57
2023/12/03 01:18:11;;;;;;;4.85;3.40;;;18.60;35.00;19.40;102005.00;;;;5031961;28;20042;-58
2023/12/03 01:20:38;;;;;;;4.63;4.22;;;18.60;35.00;19.40;102006.00;;;;5033022;28;20072;-56
2023/12/03 01:23:04;;;;;;;5.22;4.72;;;18.60;35.00;19.40;102003.00;;;;5032148;28;20120;-54
2023/12/03 01:25:30;;;;;;;4.22;3.85;;;18.60;35.00;19.40;102008.00;;;;5015600;28;20037;-60
2023/12/03 01:27:57;;;;;;;5.45;3.55;;;18.60;35.00;19.40;102003.00;;;;5012026;28;20506;-57
2023/12/03 01:30:23;;;;;;;4.47;3.55;;;18.50;34.90;19.40;101998.00;;;;5029118;28;20112;-57
2023/12/03 01:32:49;;;;;;;5.93;4.22;;;18.50;34.90;19.40;102004.00;;;;5015405;28;20076;-59
2023/12/03 01:35:16;;;;;;;6.53;4.97;;;18.60;35.00;19.40;102004.00;;;;5014737;28;20044;-56
2023/12/03 01:37:42;;;;;;;3.75;3.17;;;18.60;35.00;19.40;102011.00;;;;5031848;28;20095;-54
2023/12/03 01:40:09;;;;;;;5.47;4.57;;;18.60;35.00;19.40;102011.00;;;;5032938;28;20402;-58
2023/12/03 01:42:35;;;;;;;6.32;4.05;;;18.50;34.90;19.40;102011.00;;;;5025271;28;20030;-55
2023/12/03 01:45:01;;;;;;;4.38;3.45;;;18.50;34.90;19.40;102009.00;;;;5029743;28;20040;-56
2023/12/03 01:47:29;;;;;;;4.35;3.38;;;18.50;34.90;19.40;102003.00;;;;5032556;28;20120;-57
2023/12/03 01:49:58;;;;;;;5.03;4.10;;;18.50;34.90;19.40;102008.00;;;;5031412;28;20117;-55
2023/12/03 01:52:24;;;;;;;4.40;3.58;;;18.50;34.90;19.40;102006.00;;;;5039778;28;20175;-56
2023/12/03 01:54:51;;;;;;;4.80;3.83;;;18.50;34.90;19.30;102002.00;;;;5030334;28;20357;-56
2023/12/03 01:57:17;;;;;;;5.80;3.85;;;18.50;34.90;19.30;102008.00;;;;5031402;28;20517;-57
2023/12/03 01:59:43;;;;;;;5.55;4.20;;;18.50;34.90;19.30;102016.00;;;;5030524;28;20042;-57
2023/12/03 02:02:09;;;;;;;6.05;4.05;;;18.50;34.90;19.30;102011.00;;;;5029244;28;20048;-59
2023/12/03 02:04:35;;;;;;;5.25;4.57;;;18.50;34.90;19.30;102014.00;;;;5031104;28;20029;-59
2023/12/03 02:07:01;;;;;;;5.15;3.78;;;18.50;34.90;19.30;102010.00;;;;5030974;28;20034;-44
2023/12/03 02:09:27;;;;;;;5.30;3.83;;;18.50;34.80;19.30;102011.00;;;;5029762;28;20041;-44
2023/12/03 02:11:53;;;;;;;7.35;4.10;;;18.50;34.90;19.30;102004.00;;;;5029431;28;20482;-44
2023/12/03 02:14:19;;;;;;;5.90;4.70;;;18.50;34.90;19.30;102010.00;;;;5030374;28;20056;-44
2023/12/03 02:16:47;;;;;;;6.90;5.18;;;18.50;34.80;19.30;102011.00;;;;5029951;28;20041;-44
2023/12/03 02:19:17;;;;;;;4.53;4.13;;;18.50;34.90;19.30;101996.00;;;;5029778;28;20037;-43
2023/12/03 02:21:43;;;;;;;4.40;3.95;;;18.50;34.80;19.30;102005.00;;;;5029695;28;20037;-44
2023/12/03 02:24:09;;;;;;;6.25;4.35;;;18.50;34.80;19.20;101995.00;;;;5030479;28;20090;-44
2023/12/03 02:26:35;;;;;;;6.35;4.88;;;18.50;34.80;19.20;101990.00;;;;5030652;28;20029;-57
2023/12/03 02:29:01;;;;;;;5.68;4.25;;;18.40;34.70;19.20;102000.00;;;;5030562;28;20112;-59
2023/12/03 02:31:29;;;;;;;4.72;3.50;;;18.40;34.80;19.20;102007.00;;;;5013570;28;20108;-59
2023/12/03 02:34:08;;;;;;;4.80;4.30;;;18.40;34.80;19.30;102005.00;;;;5029721;28;20132;-55
2023/12/03 02:36:34;;;;;;;6.40;4.30;;;18.40;34.80;19.30;102002.00;;;;5029760;28;20133;-57
2023/12/03 02:39:00;;;;;;;5.43;4.82;;;18.40;34.80;19.20;101999.00;;;;5029798;28;20037;-58
2023/12/03 02:41:26;;;;;;;8.32;5.22;;;18.40;34.80;19.30;102004.00;;;;5013141;28;20052;-61
2023/12/03 02:43:52;;;;;;;5.35;4.35;;;18.40;34.80;19.20;102002.00;;;;5029214;28;20034;-53
2023/12/03 02:46:18;;;;;;;4.05;3.65;;;18.40;34.80;19.20;101994.00;;;;5030663;28;20680;-60
2023/12/03 02:48:44;;;;;;;3.72;3.38;;;18.40;34.80;19.20;101998.00;;;;5030234;28;20025;-57
2023/12/03 02:51:10;;;;;;;5.88;5.35;;;18.40;34.80;19.20;101989.00;;;;5029427;28;20386;-57
2023/12/03 02:53:37;;;;;;;3.60;3.10;;;18.40;34.80;19.20;101987.00;;;;4989598;28;1195153;-58
2023/12/03 02:56:04;;;;;;;5.20;4.63;;;18.40;34.70;19.20;101992.00;;;;5031208;28;20056;-59
2023/12/03 02:58:30;;;;;;;6.97;4.55;;;18.40;34.70;19.20;101988.00;;;;5030344;28;20049;-58
2023/12/03 03:00:57;;;;;;;4.60;4.18;;;18.40;34.70;19.20;101989.00;;;;5030301;28;20590;-58
2023/12/03 03:03:23;;;;;;;7.72;5.95;;;18.40;34.70;19.20;101997.00;;;;5030157;28;20037;-59
2023/12/03 03:05:48;;;;;;;4.85;3.75;;;18.40;34.70;19.10;101993.00;;;;5031203;28;20037;-56
2023/12/03 03:08:14;;;;;;;5.68;5.03;;;18.30;34.70;19.10;102003.00;;;;5030840;28;20116;-61
2023/12/03 03:10:40;;;;;;;5.32;4.75;;;18.30;34.60;19.10;102002.00;;;;5030186;28;20036;-60
2023/12/03 03:13:08;;;;;;;5.75;5.10;;;18.30;34.70;19.10;101994.00;;;;5031182;28;20427;-56
2023/12/03 03:15:35;;;;;;;7.30;5.22;;;18.30;34.70;19.10;101997.00;;;;5030352;28;20106;-60
2023/12/03 03:18:01;;;;;;;7.65;5.35;;;18.30;34.70;19.10;101998.00;;;;5004337;28;20132;-54
2023/12/03 03:20:27;;;;;;;5.53;3.67;;;18.30;34.60;19.10;102001.00;;;;5029843;28;20025;-56
2023/12/03 03:22:53;;;;;;;6.82;4.35;;;18.30;34.60;19.10;101996.00;;;;5028910;28;20466;-57
2023/12/03 03:25:19;;;;;;;5.20;4.32;;;18.30;34.60;19.10;102001.00;;;;5030936;28;20033;-44
2023/12/03 03:27:45;;;;;;;6.57;4.72;;;18.30;34.60;19.10;102004.00;;;;5030629;28;20029;-44
2023/12/03 03:30:11;;;;;;;6.55;5.07;;;18.30;34.70;19.10;102008.00;;;;5029487;28;20025;-43
2023/12/03 03:32:37;;;;;;;5.22;4.55;;;18.30;34.70;19.10;102009.00;;;;5030702;28;20065;-44
2023/12/03 03:35:04;;;;;;;5.15;4.75;;;18.30;34.70;19.10;102012.00;;;;5030424;28;20154;-43
2023/12/03 03:37:30;;;;;;;5.68;4.47;;;18.30;34.70;19.10;102010.00;;;;5009236;28;20026;-44
2023/12/03 03:39:56;;;;;;;6.25;4.88;;;18.30;34.70;19.10;102010.00;;;;5024150;28;20644;-43
2023/12/03 03:42:22;;;;;;;4.10;3.67;;;18.30;34.70;19.10;102010.00;;;;5029279;28;20067;-44
2023/12/03 03:44:49;;;;;;;5.03;4.53;;;18.30;34.70;19.10;102008.00;;;;5029775;28;20035;-43
2023/12/03 03:47:15;;;;;;;6.10;4.53;;;18.30;34.70;19.10;102007.00;;;;5029555;28;20455;-58
2023/12/03 03:49:41;;;;;;;6.97;4.65;;;18.20;34.70;19.10;101997.00;;;;5029040;28;20030;-57
2023/12/03 03:52:08;;;;;;;5.90;4.47;;;18.30;34.70;19.10;101997.00;;;;5029046;28;20041;-59
2023/12/03 03:54:38;;;;;;;4.78;4.07;;;18.30;34.70;19.10;101994.00;;;;5028939;28;20045;-61
2023/12/03 03:57:04;;;;;;;5.35;4.78;;;18.20;34.60;19.10;101995.00;;;;5013444;28;20083;-59
2023/12/03 03:59:30;;;;;;;5.75;4.70;;;18.20;34.60;19.00;101996.00;;;;5030221;28;20398;-56
2023/12/03 04:01:56;;;;;;;5.68;4.63;;;18.20;34.60;19.00;101990.00;;;;5030269;28;20048;-56
2023/12/03 04:04:22;;;;;;;4.47;4.10;;;18.20;34.60;19.00;101985.00;;;;5029070;28;20065;-55
2023/12/03 04:06:48;;;;;;;5.35;3.80;;;18.20;34.60;19.00;101992.00;;;;5029843;28;20386;-45
2023/12/03 04:09:14;;;;;;;5.97;4.90;;;18.20;34.60;19.00;101986.00;;;;5024689;28;20033;-44
2023/12/03 04:11:45;;;;;;;4.75;3.95;;;18.20;34.60;19.00;101978.00;;;;5024547;28;20037;-43
2023/12/03 04:14:15;;;;;;;6.03;4.88;;;18.20;34.60;19.00;101973.00;;;;5029576;28;20069;-44
2023/12/03 04:16:41;;;;;;;5.45;4.65;;;18.20;34.60;19.00;101976.00;;;;5028925;28;20461;-43
2023/12/03 04:19:08;;;;;;;5.07;4.45;;;18.20;34.60;19.00;101976.00;;;;5029621;28;20037;-43
2023/12/03 04:21:36;;;;;;;4.63;4.22;;;18.20;34.60;19.00;101991.00;;;;5028564;28;20048;-44
2023/12/03 04:24:03;;;;;;;9.02;5.20;;;18.20;34.60;19.00;101987.00;;;;5023735;28;20030;-44
2023/12/03 04:26:29;;;;;;;5.65;4.53;;;18.10;34.60;19.00;101994.00;;;;5021401;28;20466;-44
2023/12/03 04:28:55;;;;;;;6.55;4.63;;;18.10;34.60;19.00;101999.00;;;;5012659;28;20065;-43
2023/12/03 04:31:27;;;;;;;8.05;4.50;;;18.20;34.60;19.00;101998.00;;;;5029554;28;20033;-44
2023/12/03 04:33:56;;;;;;;4.75;4.28;;;18.10;34.60;19.00;101985.00;;;;5029497;28;20087;-44
2023/12/03 04:36:23;;;;;;;4.63;4.22;;;18.10;34.60;19.00;101985.00;;;;5028469;28;20033;-43
2023/12/03 04:38:54;;;;;;;5.03;4.35;;;18.10;34.60;19.00;101987.00;;;;5012205;28;20058;-43
2023/12/03 04:41:21;;;;;;;6.30;5.00;;;18.20;34.70;19.00;101973.00;;;;5028577;28;20124;-44
2023/12/03 04:43:47;;;;;;;4.55;4.13;;;18.10;35.20;19.00;101985.00;;;;5009924;28;20060;-44
2023/12/03 04:46:13;;;;;;;6.65;6.00;;;18.10;34.60;19.00;101974.00;;;;5022562;28;20049;-58
2023/12/03 04:48:41;;;;;;;6.38;4.28;;;18.10;34.60;19.00;101971.00;;;;5029658;28;20352;-54
2023/12/03 04:51:08;;;;;;;4.75;4.05;;;18.10;34.60;18.90;101972.00;;;;5011860;28;20052;-59
2023/12/03 04:53:33;;;;;;;6.53;4.55;;;18.10;34.60;18.90;101968.00;;;;5029342;28;20053;-56
2023/12/03 04:56:00;;;;;;;4.72;4.28;;;18.10;34.60;18.90;101969.00;;;;5009111;28;20034;-58
2023/12/03 04:58:26;;;;;;;5.85;4.70;;;18.10;34.60;18.90;101974.00;;;;5029497;28;20393;-58
2023/12/03 05:00:53;;;;;;;6.28;4.78;;;18.10;34.60;18.90;101976.00;;;;5029466;28;20041;-56
2023/12/03 05:03:19;;;;;;;4.38;3.95;;;18.10;34.50;18.90;101974.00;;;;5029381;28;20042;-56
2023/12/03 05:05:45;;;;;;;5.40;4.18;;;18.10;34.50;18.90;101967.00;;;;5011518;28;20026;-44
2023/12/03 05:08:11;;;;;;;6.05;5.07;;;18.10;34.50;18.90;101967.00;;;;5028454;28;20033;-44
2023/12/03 05:10:37;;;;;;;6.03;3.75;;;18.10;34.50;18.80;101971.00;;;;5028185;28;20033;-44
2023/12/03 05:13:03;;;;;;;5.32;4.25;;;18.10;34.50;18.80;101970.00;;;;5029086;28;20041;-43
2023/12/03 05:15:29;;;;;;;4.85;4.35;;;18.10;34.60;18.80;101965.00;;;;5029107;28;20029;-44
2023/12/03 05:17:55;;;;;;;6.38;4.57;;;18.00;34.50;18.80;101968.00;;;;5018565;28;20359;-43
2023/12/03 05:20:21;;;;;;;7.28;4.72;;;18.00;34.50;18.80;101964.00;;;;5030008;28;20444;-44
2023/12/03 05:22:46;;;;;;;4.55;3.97;;;18.00;34.50;18.80;101961.00;;;;5011720;28;20037;-44
2023/12/03 05:25:14;;;;;;;5.93;4.70;;;18.00;34.50;18.80;101959.00;;;;5027922;28;20108;-44
2023/12/03 05:27:39;;;;;;;6.38;4.18;;;18.00;34.50;18.80;101951.00;;;;5009040;28;20076;-58
2023/12/03 05:30:06;;;;;;;5.25;4.70;;;18.00;34.50;18.80;101949.00;;;;5023140;28;20068;-58
2023/12/03 05:32:32;;;;;;;5.18;4.65;;;18.00;34.50;18.80;101954.00;;;;5028903;28;20033;-56
2023/12/03 05:34:58;;;;;;;7.72;4.53;;;18.00;34.50;18.80;101966.00;;;;5029047;28;20037;-58
2023/12/03 05:37:28;;;;;;;5.75;4.40;;;18.00;34.50;18.80;101962.00;;;;5028590;28;20033;-61
2023/12/03 05:39:55;;;;;;;5.65;4.63;;;18.00;34.50;18.80;101950.00;;;;5012048;28;20045;-59
2023/12/03 05:42:21;;;;;;;5.15;4.15;;;18.00;34.50;18.80;101941.00;;;;5028124;28;20155;-58
2023/12/03 05:44:47;;;;;;;4.18;3.63;;;18.00;34.50;18.90;101940.00;;;;5014996;28;20030;-55
2023/12/03 05:47:13;;;;;;;5.47;4.38;;;18.00;34.60;18.90;101940.00;;;;5023710;28;20036;-55
2023/12/03 05:49:39;;;;;;;6.57;4.00;;;18.00;35.10;18.90;101943.00;;;;5031763;28;20053;-57
2023/12/03 05:52:05;;;;;;;5.28;4.25;;;18.00;34.50;18.80;101938.00;;;;5031427;28;20076;-56
2023/12/03 05:54:31;;;;;;;6.13;3.95;;;18.00;34.50;18.80;101954.00;;;;5032590;28;20461;-57
2023/12/03 05:56:57;;;;;;;5.78;5.18;;;18.00;34.50;18.80;101959.00;;;;5032465;28;20040;-57
2023/12/03 05:59:23;;;;;;;5.38;4.88;;;18.00;34.50;18.80;101956.00;;;;5032310;28;20045;-57
2023/12/03 06:01:50;;;;;;;5.15;4.30;;;18.00;34.50;18.80;101949.00;;;;5032415;28;20049;-59
2023/12/03 06:04:16;;;;;;;5.68;4.30;;;18.00;34.50;18.70;101955.00;;;;5032461;28;20045;-58
2023/12/03 06:06:42;;;;;;;5.72;4.40;;;17.90;34.40;18.80;101966.00;;;;5032057;28;20029;-44
2023/12/03 06:09:09;;;;;;;5.05;4.32;;;17.90;34.40;18.70;101963.00;;;;5018020;28;20509;-44
2023/12/03 06:11:38;;;;;;;4.88;4.38;;;17.90;35.00;18.70;101949.00;;;;5031136;28;20041;-45
2023/12/03 06:14:04;;;;;;;7.28;5.38;;;18.00;34.50;18.70;101956.00;;;;5031018;28;20049;-44
2023/12/03 06:16:31;;;;;;;8.07;5.03;;;17.90;34.40;18.70;101957.00;;;;5031865;28;20107;-43
2023/12/03 06:18:57;;;;;;;6.10;4.97;;;17.90;34.40;18.70;101945.00;;;;5014574;28;20064;-43
2023/12/03 06:21:23;;;;;;;7.60;5.50;;;17.90;34.40;18.70;101945.00;;;;5031705;28;20044;-44
2023/12/03 06:23:49;;;;;;;4.55;4.00;;;17.90;34.40;18.70;101940.00;;;;5031836;28;20111;-43
2023/12/03 06:26:15;;;;;;;4.43;4.03;;;17.90;34.40;18.70;101935.00;;;;5031171;28;20801;-58
2023/12/03 06:28:41;;;;;;;5.78;4.60;;;17.90;34.40;18.70;101935.00;;;;5031193;28;20470;-57
2023/12/03 06:31:07;;;;;;;5.50;4.25;;;17.90;34.40;18.70;101930.00;;;;5032291;28;20122;-59
2023/12/03 06:33:34;;;;;;;5.18;4.50;;;17.90;34.50;18.70;101934.00;;;;5014755;28;20033;-58
2023/12/03 06:36:00;;;;;;;5.68;4.80;;;17.90;34.50;18.70;101936.00;;;;5036932;28;20447;-54
2023/12/03 06:38:26;;;;;;;5.10;4.47;;;17.90;34.40;18.70;101942.00;;;;5032150;28;20533;-58
2023/12/03 06:40:53;;;;;;;5.32;4.93;;;17.90;34.40;18.70;101941.00;;;;5031120;28;20045;-56
2023/12/03 06:43:19;;;;;;;8.88;4.63;;;17.90;34.40;18.70;101946.00;;;;5047418;28;20419;-57
2023/12/03 06:45:45;;;;;;;4.72;4.32;;;17.90;34.50;18.70;101939.00;;;;5031261;28;20065;-56
2023/12/03 06:48:11;;;;;;;6.30;4.50;;;17.90;34.50;18.70;101951.00;;;;5030902;28;20049;-58
2023/12/03 06:50:37;;;;;;;6.68;5.57;;;17.90;34.50;18.70;101945.00;;;;5031600;28;20764;-56
2023/12/03 06:53:03;;;;;;;6.97;5.07;;;17.90;34.40;18.70;101944.00;;;;5031349;28;20483;-58
2023/12/03 06:55:29;;;;;;;5.22;4.72;;;17.90;34.50;18.70;101938.00;;;;5031401;28;20442;-61
2023/12/03 06:57:55;;;;;;;5.85;5.07;;;17.90;34.40;18.70;101948.00;;;;5029333;28;20383;-60
2023/12/03 07:00:23;;;;;;;6.53;5.32;;;17.90;34.40;18.70;101950.00;;;;5031253;28;20034;-56
2023/12/03 07:02:49;;;;;;;6.22;4.85;;;17.90;34.50;18.70;101946.00;;;;5030541;28;20136;-59
2023/12/03 07:05:16;;;;;;;6.53;5.15;;;17.90;34.40;18.70;101947.00;;;;5031284;28;20034;-56
2023/12/03 07:07:42;;;;;;;6.78;4.68;;;17.90;34.40;18.70;101944.00;;;;5030447;28;20044;-58
2023/12/03 07:10:08;;;;;;;8.10;4.93;;;17.90;34.40;18.70;101946.00;;;;5031180;28;20524;-60
2023/12/03 07:12:34;;;;;;;5.72;4.82;;;17.90;34.50;18.70;101952.00;;;;5013782;28;20814;-59
2023/12/03 07:15:00;;;;;;;5.10;4.45;;;17.90;34.40;18.70;101955.00;;;;5030125;28;20128;-58
2023/12/03 07:17:26;;;;;;;5.75;5.22;;;17.90;34.50;18.70;101945.00;;;;5020501;28;20057;-59
2023/12/03 07:19:53;;;;;;;9.18;6.38;;;17.90;34.50;18.70;101950.00;;;;5031100;28;20482;-58
2023/12/03 07:22:19;;;;;;;7.90;4.97;;;17.90;34.50;18.70;101959.00;;;;5012919;28;20048;-62
2023/12/03 07:24:45;;;;;;;6.82;4.88;;;17.80;34.50;18.70;101947.00;;;;5030105;28;20049;-56
2023/12/03 07:27:11;;;;;;;7.82;5.28;;;17.80;34.50;18.70;101948.00;;;;5029533;28;20445;-59
2023/12/03 07:29:37;;;;;;;8.27;5.10;;;17.80;34.50;18.70;101950.00;;;;5030455;28;20478;-56
2023/12/03 07:32:03;;;;;;;9.32;5.43;;;17.80;34.50;18.70;101949.00;;;;5030023;28;20026;-60
2023/12/03 07:34:29;;;;;;;6.75;4.72;;;17.80;34.50;18.70;101951.00;;;;4997138;28;20056;-55
2023/12/03 07:36:55;;;;;;;10.82;5.60;;;17.80;34.50;18.70;101950.00;;;;5029705;28;20037;-57
2023/12/03 07:39:23;;;;;;;8.63;5.45;;;17.80;34.50;18.70;101954.00;;;;5029696;28;20462;-56
2023/12/03 07:41:54;;;;;;;6.55;4.93;;;17.80;34.50;18.70;101952.00;;;;5029429;28;20041;-58
2023/12/03 07:44:21;;;;;;;6.53;4.85;;;17.80;34.50;18.70;101939.00;;;;5023754;28;20029;-56
2023/12/03 07:46:47;;;;;;;10.30;4.95;;;17.80;34.60;18.70;101944.00;;;;5010961;28;20112;-56
2023/12/03 07:49:13;;;;;;;7.55;5.47;;;17.80;34.60;18.70;101948.00;;;;5029298;28;20072;-58
2023/12/03 07:51:39;;;;;;;8.95;5.60;;;17.80;34.60;18.70;101944.00;;;;5030214;28;20033;-58
2023/12/03 07:54:05;;;;;;;7.25;5.10;;;17.80;34.60;18.70;101935.00;;;;5029458;28;20133;-59
2023/12/03 07:56:39;;;;;;;5.95;4.82;;;17.80;34.70;18.70;101935.00;;;;5030364;28;20148;-61
2023/12/03 07:59:05;;;;;;;10.32;6.15;;;17.80;34.70;18.70;101936.00;;;;5011386;28;20033;-58
2023/12/03 08:01:32;;;;;;;6.95;5.07;;;17.80;34.70;18.80;101937.00;;;;5029654;28;20056;-59
2023/12/03 08:03:59;;;;;;;7.63;5.75;;;17.80;34.70;18.80;101943.00;;;;5029511;28;20044;-56
2023/12/03 08:06:26;;;;;;;5.03;4.35;;;17.90;34.80;18.80;101924.00;;;;5010144;28;20040;-43
2023/12/03 08:08:53;;;;;;;8.05;5.47;;;17.90;34.80;18.70;101922.00;;;;5022105;28;20095;-43
2023/12/03 08:11:19;;;;;;;6.65;4.07;;;17.80;34.80;18.70;101925.00;;;;5021658;28;20604;-44
2023/12/03 08:13:46;;;;;;;7.57;5.75;;;17.90;34.80;18.70;101916.00;;;;5028869;28;20048;-44
2023/12/03 08:16:12;;;;;;;6.05;4.72;;;17.90;34.80;18.70;101916.00;;;;5030082;28;20049;-43
2023/12/03 08:18:39;;;;;;;6.55;4.85;;;17.90;34.80;18.70;101918.00;;;;5029837;28;20076;-43
2023/12/03 08:21:06;;;;;;;6.78;5.13;;;17.90;34.80;18.70;101922.00;;;;5012353;28;20061;-43
2023/12/03 08:23:32;;;;;;;6.13;5.05;;;17.90;34.90;18.70;101909.00;;;;5028816;28;20037;-43
2023/12/03 08:25:59;;;;;;;6.93;4.15;;;17.90;34.90;18.70;101917.00;;;;5028829;28;20025;-43
2023/12/03 08:28:25;;;;;;;5.80;4.90;;;17.90;34.90;18.70;101904.00;;;;5028708;28;20121;-43
2023/12/03 08:30:51;;;;;;;7.20;5.57;;;17.90;34.90;18.70;101917.00;;;;5028647;28;20148;-43
2023/12/03 08:33:17;;;;;;;8.70;4.38;;;17.90;34.90;18.80;101919.00;;;;5029628;28;20029;-43
2023/12/03 08:35:43;;;;;;;8.18;6.05;;;17.90;34.90;18.80;101912.00;;;;5028664;28;20033;-43
2023/12/03 08:38:09;;;;;;;7.15;4.72;;;17.90;34.90;18.80;101905.00;;;;5029605;28;20025;-43
2023/12/03 08:40:35;;;;;;;5.50;4.18;;;17.90;34.90;18.80;101901.00;;;;5025879;28;20037;-43
2023/12/03 08:43:01;;;;;;;5.22;4.30;;;17.90;34.90;18.80;101897.00;;;;5017743;28;20030;-43
2023/12/03 08:45:29;;;;;;;5.90;4.68;;;17.90;34.90;18.80;101905.00;;;;5027908;28;20124;-43
2023/12/03 08:47:56;;;;;;;4.97;4.30;;;17.90;34.80;18.90;101909.00;;;;5009598;28;20084;-59
2023/12/03 08:50:27;;;;;;;5.00;4.28;;;17.90;34.80;18.90;101908.00;;;;5017533;28;20111;-57
2023/12/03 08:52:56;;;;;;;5.88;3.97;;;18.00;34.90;19.00;101904.00;;;;5018522;28;20069;-58
2023/12/03 08:55:22;;;;;;;5.20;4.30;;;18.00;35.50;19.20;101911.00;;;;5027958;28;20029;-55
2023/12/03 08:57:48;;;;;;;5.03;4.53;;;18.10;34.80;19.50;101894.00;;;;5027496;28;20683;-54
2023/12/03 09:00:16;;;;;;;5.75;4.55;;;18.30;34.70;19.80;101887.00;;;;5019507;28;20112;-61
2023/12/03 09:02:46;;;;;;;4.65;3.80;;;18.50;34.60;19.90;101888.00;;;;5022544;28;20057;-58
2023/12/03 09:05:13;;;;;;;7.40;4.47;;;18.60;34.40;20.00;101893.00;;;;5028090;28;20655;-57
2023/12/03 09:07:39;;;;;;;6.88;3.92;;;18.70;34.30;20.20;101896.00;;;;5018093;28;20052;-56
2023/12/03 09:10:07;;;;;;;5.30;3.90;;;18.90;34.20;20.30;101893.00;;;;5011887;28;20567;-56
2023/12/03 09:12:33;;;;;;;4.50;4.07;;;18.90;33.90;20.40;101901.00;;;;5028042;28;20981;-59
2023/12/03 09:14:59;;;;;;;4.40;4.00;;;19.10;33.90;20.50;101884.00;;;;4991775;28;20034;-54
2023/12/03 09:17:26;;;;;;;6.07;5.32;;;19.30;33.70;20.70;101875.00;;;;5025657;28;20895;-56
2023/12/03 09:19:52;;;;;;;4.30;3.92;;;19.50;33.50;20.70;101884.00;;;;5024929;28;20041;-57
2023/12/03 09:22:18;;;;;;;5.75;4.70;;;19.50;33.30;20.90;101877.00;;;;5031793;28;20048;-57
2023/12/03 09:24:44;;;;;;;5.05;4.55;;;19.70;33.20;20.80;101871.00;;;;5032808;28;20030;-59
2023/12/03 09:27:10;;;;;;;6.07;4.20;;;19.70;32.90;20.70;101874.00;;;;5033010;28;20033;-44
2023/12/03 09:29:36;;;;;;;5.70;5.18;;;19.60;32.80;20.60;101881.00;;;;5031907;28;20026;-44
2023/12/03 09:32:04;;;;;;;6.10;5.07;;;19.60;32.80;20.60;101869.00;;;;5031828;28;20021;-43
2023/12/03 09:34:30;;;;;;;6.82;5.15;;;19.50;32.80;20.50;101870.00;;;;5031923;28;20591;-43
2023/12/03 09:36:56;;;;;;;4.68;4.28;;;19.50;32.90;20.40;101878.00;;;;5032770;28;20052;-43
2023/12/03 09:39:23;;;;;;;5.90;4.53;;;19.40;32.90;20.40;101878.00;;;;5031691;28;20033;-46
2023/12/03 09:41:51;;;;;;;6.00;4.85;;;19.40;32.90;20.30;101880.00;;;;5033072;28;20034;-44
2023/12/03 09:44:55;;;;;;;5.78;4.20;;;19.30;32.90;20.20;101881.00;;;;5032431;28;20037;-43
2023/12/03 09:47:26;;;;;;;4.82;4.28;;;19.30;33.00;20.20;101874.00;;;;5023783;28;20494;-44
2023/12/03 09:49:56;;;;;;;7.90;4.40;;;19.30;33.00;20.10;101878.00;;;;5032494;28;20052;-43
2023/12/03 09:52:26;;;;;;;6.10;3.70;;;19.30;33.10;20.10;101882.00;;;;5032423;28;20096;-44
2023/12/03 09:54:57;;;;;;;7.13;5.47;;;19.20;33.10;20.10;101899.00;;;;5032611;28;20128;-43
2023/12/03 09:57:27;;;;;;;4.65;4.25;;;19.20;33.10;20.00;101907.00;;;;5031442;28;20044;-43
2023/12/03 09:59:58;;;;;;;4.80;4.40;;;19.20;33.20;20.00;101902.00;;;;5027669;28;20069;-43
2023/12/03 10:02:26;;;;;;;3.72;3.42;;;19.10;33.80;19.90;101893.00;;;;5024284;28;20374;-43
2023/12/03 10:04:53;;;;;;;3.65;3.35;;;19.10;33.20;19.90;101888.00;;;;5032347;28;20092;-43
2023/12/03 10:07:23;;;;;;;4.35;4.05;;;19.00;33.20;19.80;101879.00;;;;5015457;28;20036;-58
2023/12/03 10:09:50;;;;;;;3.60;3.30;;;19.00;33.30;19.80;101882.00;;;;5019608;28;20037;-59
2023/12/03 10:12:19;;;;;;;5.63;5.05;;;19.00;33.30;19.80;101890.00;;;;5015131;28;20156;-61
2023/12/03 10:14:45;;;;;;;4.00;3.58;;;18.90;33.30;19.70;101886.00;;;;5016335;28;20109;-57
2023/12/03 10:17:21;;;;;;;5.15;4.65;;;18.90;33.30;19.70;101877.00;;;;5026768;28;20041;-60
2023/12/03 10:19:47;;;;;;;3.80;3.45;;;18.90;33.30;19.70;101881.00;;;;5031275;28;20037;-58
2023/12/03 10:22:13;;;;;;;5.15;4.70;;;18.90;33.40;19.70;101872.00;;;;5032345;28;20060;-58
2023/12/03 10:24:47;;;;;;;4.80;4.40;;;18.90;33.40;19.60;101882.00;;;;5031145;28;20053;-59
2023/12/03 10:27:13;;;;;;;5.07;3.72;;;18.80;33.30;19.60;101878.00;;;;5027699;28;20525;-56
2023/12/03 10:29:40;;;;;;;4.43;3.33;;;18.80;33.40;19.60;101877.00;;;;5005453;28;20108;-56
2023/12/03 10:32:08;;;;;;;3.85;3.55;;;18.80;33.40;19.50;101876.00;;;;5032203;28;20374;-58
2023/12/03 10:34:34;;;;;;;4.80;3.58;;;18.80;33.40;19.50;101876.00;;;;5031346;28;20826;-56
2023/12/03 10:37:01;;;;;;;4.47;3.22;;;18.70;33.40;19.50;101876.00;;;;5031939;28;20113;-60
2023/12/03 10:39:27;;;;;;;3.75;3.20;;;18.70;33.40;19.50;101857.00;;;;5031525;28;20049;-57
2023/12/03 10:41:54;;;;;;;3.90;3.60;;;18.70;33.40;19.50;101849.00;;;;5031944;28;20029;-59
2023/12/03 10:44:23;;;;;;;4.03;3.65;;;18.70;33.40;19.50;101850.00;;;;5031970;28;20069;-60